Neverland — IBCT — position and weather

sailwx.info

Track history (hours):
 
Tides and Currents Weather Stations Pressure Air Temp Water Temp Dewpoint Dewpoint Depression Visibility Wind Speed Wind Dir Waves Ship Positions

Neverland

Last reported at 2018-Aug-09 22:12 UTC. Time now 2018-Aug-17 11:41 UTC.
Position N 43°29' E 014°50'.

Length 239 m; draft 7 m.

Type: Tanker. MMSI: 247148700.

Date/timePositionNaut miles runAvg speedWind from/ knotsBaromVisibWave heightAir tempDewpointWater temp
2018-Aug-09 22:12N 43°29' E 014°50'512.7
2018-Aug-09 21:47N 43°33' E 014°45'412.6
2018-Aug-09 21:28N 43°37' E 014°42'612.7
2018-Aug-09 21:00N 43°41' E 014°37'1212.8
2018-Aug-09 20:04N 43°51' E 014°27'112.9
2018-Aug-09 20:00N 43°52' E 014°26'912.7
2018-Aug-09 19:15N 43°60' E 014°19'312.5
2018-Aug-09 19:01N 44°02' E 014°16'612.2
2018-Aug-09 18:30N 44°08' E 014°13'612.3
2018-Aug-09 18:00N 44°14' E 014°11'612.3
2018-Aug-09 17:30N 44°20' E 014°10'612.3
2018-Aug-09 17:00N 44°26' E 014°08'612.3
2018-Aug-09 16:31N 44°32' E 014°07'612.4
2018-Aug-09 16:01N 44°38' E 014°05'612.5
2018-Aug-09 15:30N 44°44' E 014°04'612.0
2018-Aug-09 15:01N 44°50' E 014°08'612.0
2018-Aug-09 14:31N 44°55' E 014°12'1611.1
2018-Aug-09 13:05N 45°10' E 014°16'111.0
2018-Aug-09 13:01N 45°11' E 014°17'1011.2
2018-Aug-09 12:06N 45°14' E 014°31'1 5.8
2018-Aug-09 11:52N 45°14' E 014°32'0 0.3
2018-Aug-09 11:30N 45°14' E 014°32'0 0.0
2018-Aug-08 07:46N 45°14' E 014°32'0 0.6
2018-Aug-08 07:30N 45°14' E 014°32'2 3.6
2018-Aug-08 07:00N 45°15' E 014°31'23 8.5
2018-Aug-08 04:17N 44°56' E 014°12'510.5
2018-Aug-08 03:46N 44°51' E 014°09'311.3
2018-Aug-08 03:30N 44°48' E 014°07'611.0
2018-Aug-08 03:01N 44°43' E 014°05'611.1
2018-Aug-08 02:31N 44°38' E 014°06'611.1
2018-Aug-08 02:01N 44°32' E 014°07'611.2
2018-Aug-08 01:30N 44°27' E 014°08'511.1
2018-Aug-08 01:01N 44°21' E 014°09'611.1
2018-Aug-08 00:31N 44°16' E 014°10'611.1
2018-Aug-08 00:01N 44°10' E 014°12'611.1
2018-Aug-07 23:31N 44°05' E 014°13'610.9
2018-Aug-07 23:00N 44°00' E 014°17'811.0
2018-Aug-07 22:18N 43°53' E 014°22'810.9
2018-Aug-07 21:33N 43°47' E 014°28'1711.0
2018-Aug-07 20:02N 43°32' E 014°40'011.3
2018-Aug-07 20:00N 43°32' E 014°40'1011.3
2018-Aug-07 19:09N 43°24' E 014°47'211.3
2018-Aug-07 19:00N 43°22' E 014°48'1111.1
2018-Aug-07 18:01N 43°14' E 014°58'110.8
2018-Aug-07 17:53N 43°13' E 014°59'2210.8
2018-Aug-07 15:53N 42°58' E 015°20'1411.1
2018-Aug-07 14:38N 42°48' E 015°33'  
Track history (hours):
 
Tides and Currents Weather Stations Pressure Air Temp Water Temp Dewpoint Dewpoint Depression Visibility Wind Speed Wind Dir Waves Ship Positions

Neverland

Last reported at 2018-Aug-09 22:12 UTC. Time now 2018-Aug-17 11:41 UTC.
Position N 43°29' E 014°50'.

Length 239 m; draft 7 m.

Type: Tanker. MMSI: 247148700.

Date/timePositionNaut miles runAvg speedWind from/ knotsBaromVisibWave heightAir tempDewpointWater temp
2018-Aug-09 22:12N 43°29' E 014°50'512.7
2018-Aug-09 21:47N 43°33' E 014°45'412.6
2018-Aug-09 21:28N 43°37' E 014°42'612.7
2018-Aug-09 21:00N 43°41' E 014°37'1212.8
2018-Aug-09 20:04N 43°51' E 014°27'112.9
2018-Aug-09 20:00N 43°52' E 014°26'912.7
2018-Aug-09 19:15N 43°60' E 014°19'312.5
2018-Aug-09 19:01N 44°02' E 014°16'612.2
2018-Aug-09 18:30N 44°08' E 014°13'612.3
2018-Aug-09 18:00N 44°14' E 014°11'612.3
2018-Aug-09 17:30N 44°20' E 014°10'612.3
2018-Aug-09 17:00N 44°26' E 014°08'612.3
2018-Aug-09 16:31N 44°32' E 014°07'612.4
2018-Aug-09 16:01N 44°38' E 014°05'612.5
2018-Aug-09 15:30N 44°44' E 014°04'612.0
2018-Aug-09 15:01N 44°50' E 014°08'612.0
2018-Aug-09 14:31N 44°55' E 014°12'1611.1
2018-Aug-09 13:05N 45°10' E 014°16'111.0
2018-Aug-09 13:01N 45°11' E 014°17'1011.2
2018-Aug-09 12:06N 45°14' E 014°31'1 5.8
2018-Aug-09 11:52N 45°14' E 014°32'0 0.3
2018-Aug-09 11:30N 45°14' E 014°32'0 0.0
2018-Aug-08 07:46N 45°14' E 014°32'0 0.6
2018-Aug-08 07:30N 45°14' E 014°32'2 3.6
2018-Aug-08 07:00N 45°15' E 014°31'23 8.5
2018-Aug-08 04:17N 44°56' E 014°12'510.5
2018-Aug-08 03:46N 44°51' E 014°09'311.3
2018-Aug-08 03:30N 44°48' E 014°07'611.0
2018-Aug-08 03:01N 44°43' E 014°05'611.1
2018-Aug-08 02:31N 44°38' E 014°06'611.1
2018-Aug-08 02:01N 44°32' E 014°07'611.2
2018-Aug-08 01:30N 44°27' E 014°08'511.1
2018-Aug-08 01:01N 44°21' E 014°09'611.1
2018-Aug-08 00:31N 44°16' E 014°10'611.1
2018-Aug-08 00:01N 44°10' E 014°12'611.1
2018-Aug-07 23:31N 44°05' E 014°13'610.9
2018-Aug-07 23:00N 44°00' E 014°17'811.0
2018-Aug-07 22:18N 43°53' E 014°22'810.9
2018-Aug-07 21:33N 43°47' E 014°28'1711.0
2018-Aug-07 20:02N 43°32' E 014°40'011.3
2018-Aug-07 20:00N 43°32' E 014°40'1011.3
2018-Aug-07 19:09N 43°24' E 014°47'211.3
2018-Aug-07 19:00N 43°22' E 014°48'1111.1
2018-Aug-07 18:01N 43°14' E 014°58'110.8
2018-Aug-07 17:53N 43°13' E 014°59'2210.8
2018-Aug-07 15:53N 42°58' E 015°20'1411.1
2018-Aug-07 14:38N 42°48' E 015°33'  

Dump ship's entire track history